首页
METAR-TAF:

METAR-TAF

机场 :

达兰萨拉, 印度

纬度: 32-09-54N, 经度: 76-15-48E, 海拔: 770米

当前天气观测

该预报发布于17分钟前的01:30 UTC
静风
温度 27°C
湿度 58%
气压 1005 hPa
能見度: 5000
少量云层高于4000英尺
霾,

METAR: VIGG 170130Z 00000KT 5000 HZ FEW040 27/18 Q1005

时间: 07:17 (01:47 UTC)

预报

该预报发布于2小时和47分钟前的23:00 UTC
预报有效从17日的 00点(UTC)到 17日的 09点(UTC)
风速4节,风向东转东北
能見度: 4000
少量云层高于4000英尺
成为
从 17日的 06点(UTC)到 17日的 08点(UTC)
风速10节,风向西转西南
能見度: 5000
少量云层高于4000英尺
散云层高于8000英尺
霾,

TAF: VIGG 162300Z 1700/1709 07004KT 4000 HZ FEW040 BECMG 1706/1708 25010KT 5000 HZ FEW040 SCT080

超过4000个机场的气象观测和天气预报(METAR&TAF报告)。

可查询的气象台以黄色和红色小点在地图上表示。

将鼠标移到小点上方,可查看气象台名称。

然后点击查看天气观测和预报。

如需切换地图:点击带黑十字的绿色按钮放大地图;点击带横线的绿色按钮缩小地图;或者点击绿色箭头查看邻近地区的地图。


METAR-TAF: